KFKN/FKN METAR and TAF weather

Enter ICAO airport designator
Station Type Date Time Source
KFKN METAR 2023/02/06 00:35 UTC NOAA

KFKN 060035Z AUTO 17003KT 10SM SCT007 OVC060 09/09 A3013 RMK AO2 T00930090


Station Type Date Time Source
KFKN Decoded METAR 2023/02/06 00:35 UTC NOAA

Franklin / J B Rose, VA, United States (KFKN) 36-42N 076-54W
Feb 05, 2023 - 07:35 PM EST / 2023.02.06 0035 UTC
Wind: from the S (170 degrees) at 3 MPH (3 KT):0
Visibility: 10 mile(s):0
Sky conditions: overcast
Temperature: 48.7 F (9.3 C)
Dew Point: 48.2 F (9.0 C)
Relative Humidity: 97%
Pressure (altimeter): 30.13 in. Hg (1020 hPa)
ob: KFKN 060035Z AUTO 17003KT 10SM SCT007 OVC060 09/09 A3013 RMK AO2 T00930090
cycle: 0

Station Type Date Time Source
KFKN TAF UTC NOAA

Error!

Example: see airport list